sensor_id;sensor_type;location;lat;lon;timestamp;P1;durP1;ratioP1;P2;durP2;ratioP2
3815;SDS011;1923;48.154;11.536;2023-03-13T00:01:09;2.90;;;1.57;;
3815;SDS011;1923;48.154;11.536;2023-03-13T00:03:39;1.80;;;1.40;;
3815;SDS011;1923;48.154;11.536;2023-03-13T00:06:08;2.30;;;1.30;;
3815;SDS011;1923;48.154;11.536;2023-03-13T00:08:37;4.03;;;1.50;;
3815;SDS011;1923;48.154;11.536;2023-03-13T00:11:05;5.13;;;1.30;;
3815;SDS011;1923;48.154;11.536;2023-03-13T00:13:35;1.43;;;1.30;;
3815;SDS011;1923;48.154;11.536;2023-03-13T00:16:04;1.77;;;1.40;;
3815;SDS011;1923;48.154;11.536;2023-03-13T00:18:33;1.10;;;1.00;;
3815;SDS011;1923;48.154;11.536;2023-03-13T00:21:03;1.63;;;1.13;;
3815;SDS011;1923;48.154;11.536;2023-03-13T00:23:33;1.87;;;1.53;;
3815;SDS011;1923;48.154;11.536;2023-03-13T00:26:03;5.67;;;1.30;;
3815;SDS011;1923;48.154;11.536;2023-03-13T00:28:33;3.03;;;1.57;;
3815;SDS011;1923;48.154;11.536;2023-03-13T10:18:16;2.35;;;0.60;;
3815;SDS011;1923;48.154;11.536;2023-03-13T10:28:52;1.50;;;0.50;;
3815;SDS011;1923;48.154;11.536;2023-03-13T10:32:01;1.80;;;0.50;;
3815;SDS011;1923;48.154;11.536;2023-03-13T10:34:43;3.23;;;0.63;;
3815;SDS011;1923;48.154;11.536;2023-03-13T10:37:18;5.43;;;0.87;;
3815;SDS011;1923;48.154;11.536;2023-03-13T10:42:23;4.57;;;0.57;;
3815;SDS011;1923;48.154;11.536;2023-03-13T10:44:55;1.10;;;0.50;;
3815;SDS011;1923;48.154;11.536;2023-03-13T10:47:26;0.90;;;0.50;;
3815;SDS011;1923;48.154;11.536;2023-03-13T10:50:00;0.87;;;0.37;;
3815;SDS011;1923;48.154;11.536;2023-03-13T10:52:30;1.37;;;0.60;;
3815;SDS011;1923;48.154;11.536;2023-03-13T10:55:01;1.20;;;0.50;;
3815;SDS011;1923;48.154;11.536;2023-03-13T10:57:31;3.47;;;0.53;;
3815;SDS011;1923;48.154;11.536;2023-03-13T11:00:02;2.43;;;0.90;;
3815;SDS011;1923;48.154;11.536;2023-03-13T11:02:53;0.70;;;0.30;;
3815;SDS011;1923;48.154;11.536;2023-03-13T11:08:12;3.87;;;0.70;;
3815;SDS011;1923;48.154;11.536;2023-03-13T11:10:50;3.80;;;0.60;;
3815;SDS011;1923;48.154;11.536;2023-03-13T11:13:32;0.73;;;0.50;;
3815;SDS011;1923;48.154;11.536;2023-03-13T11:16:15;0.73;;;0.30;;
3815;SDS011;1923;48.154;11.536;2023-03-13T11:19:07;0.90;;;0.40;;
3815;SDS011;1923;48.154;11.536;2023-03-13T11:21:48;1.17;;;0.50;;
3815;SDS011;1923;48.154;11.536;2023-03-13T11:24:27;0.90;;;0.40;;
3815;SDS011;1923;48.154;11.536;2023-03-13T11:27:06;1.77;;;0.50;;
3815;SDS011;1923;48.154;11.536;2023-03-13T11:29:43;1.07;;;0.50;;
3815;SDS011;1923;48.154;11.536;2023-03-13T11:32:21;0.67;;;0.30;;
3815;SDS011;1923;48.154;11.536;2023-03-13T11:34:55;2.30;;;0.60;;
3815;SDS011;1923;48.154;11.536;2023-03-13T11:37:27;1.43;;;0.53;;
3815;SDS011;1923;48.154;11.536;2023-03-13T11:40:02;0.80;;;0.50;;
3815;SDS011;1923;48.154;11.536;2023-03-13T11:42:44;0.73;;;0.40;;
3815;SDS011;1923;48.154;11.536;2023-03-13T11:45:29;2.00;;;0.40;;
3815;SDS011;1923;48.154;11.536;2023-03-13T11:48:15;1.17;;;0.60;;
3815;SDS011;1923;48.154;11.536;2023-03-13T11:50:53;1.53;;;1.03;;
3815;SDS011;1923;48.154;11.536;2023-03-13T11:53:28;3.10;;;0.80;;
3815;SDS011;1923;48.154;11.536;2023-03-13T11:56:10;1.80;;;0.80;;
3815;SDS011;1923;48.154;11.536;2023-03-13T12:01:48;1.70;;;0.80;;
3815;SDS011;1923;48.154;11.536;2023-03-13T12:04:21;0.77;;;0.63;;
3815;SDS011;1923;48.154;11.536;2023-03-13T12:06:55;1.70;;;0.77;;
3815;SDS011;1923;48.154;11.536;2023-03-13T12:09:30;2.03;;;1.07;;
3815;SDS011;1923;48.154;11.536;2023-03-13T12:12:02;1.83;;;0.80;;
3815;SDS011;1923;48.154;11.536;2023-03-13T12:14:38;2.00;;;0.77;;
3815;SDS011;1923;48.154;11.536;2023-03-13T12:17:11;2.00;;;1.17;;
3815;SDS011;1923;48.154;11.536;2023-03-13T12:19:44;4.63;;;1.20;;
3815;SDS011;1923;48.154;11.536;2023-03-13T12:22:19;3.90;;;0.67;;
3815;SDS011;1923;48.154;11.536;2023-03-13T12:24:54;1.83;;;0.60;;
3815;SDS011;1923;48.154;11.536;2023-03-13T12:27:30;1.50;;;1.00;;
3815;SDS011;1923;48.154;11.536;2023-03-13T12:30:04;3.43;;;1.23;;
3815;SDS011;1923;48.154;11.536;2023-03-13T12:32:42;1.20;;;0.80;;
3815;SDS011;1923;48.154;11.536;2023-03-13T12:35:17;1.33;;;0.90;;
3815;SDS011;1923;48.154;11.536;2023-03-13T12:37:52;3.63;;;1.03;;
3815;SDS011;1923;48.154;11.536;2023-03-13T12:40:25;4.00;;;1.07;;
3815;SDS011;1923;48.154;11.536;2023-03-13T12:43:00;5.67;;;2.00;;
3815;SDS011;1923;48.154;11.536;2023-03-13T12:45:31;3.77;;;1.30;;
3815;SDS011;1923;48.154;11.536;2023-03-13T12:48:08;1.70;;;1.10;;
3815;SDS011;1923;48.154;11.536;2023-03-13T12:51:08;2.90;;;0.90;;
3815;SDS011;1923;48.154;11.536;2023-03-13T12:56:52;2.10;;;1.17;;
3815;SDS011;1923;48.154;11.536;2023-03-13T12:59:28;2.00;;;0.80;;
3815;SDS011;1923;48.154;11.536;2023-03-13T13:02:01;2.50;;;1.20;;
3815;SDS011;1923;48.154;11.536;2023-03-13T13:04:40;1.90;;;1.00;;
3815;SDS011;1923;48.154;11.536;2023-03-13T13:07:19;1.73;;;0.93;;
3815;SDS011;1923;48.154;11.536;2023-03-13T13:10:01;1.77;;;0.80;;
3815;SDS011;1923;48.154;11.536;2023-03-13T13:12:41;1.47;;;0.77;;
3815;SDS011;1923;48.154;11.536;2023-03-13T13:15:13;1.73;;;1.00;;
3815;SDS011;1923;48.154;11.536;2023-03-13T13:17:47;3.83;;;1.10;;
3815;SDS011;1923;48.154;11.536;2023-03-13T13:20:41;3.17;;;0.97;;
3815;SDS011;1923;48.154;11.536;2023-03-13T13:32:30;2.30;;;1.30;;
3815;SDS011;1923;48.154;11.536;2023-03-13T13:44:22;3.30;;;1.80;;
3815;SDS011;1923;48.154;11.536;2023-03-13T13:46:52;2.40;;;0.98;;
3815;SDS011;1923;48.154;11.536;2023-03-13T13:49:24;3.80;;;0.90;;
3815;SDS011;1923;48.154;11.536;2023-03-13T13:55:02;2.40;;;0.80;;
3815;SDS011;1923;48.154;11.536;2023-03-13T13:57:45;2.40;;;1.23;;
3815;SDS011;1923;48.154;11.536;2023-03-13T14:00:17;1.97;;;1.10;;
3815;SDS011;1923;48.154;11.536;2023-03-13T14:02:50;2.40;;;1.00;;
3815;SDS011;1923;48.154;11.536;2023-03-13T14:05:20;5.33;;;1.50;;
3815;SDS011;1923;48.154;11.536;2023-03-13T14:07:54;3.10;;;1.10;;
3815;SDS011;1923;48.154;11.536;2023-03-13T14:10:35;2.10;;;0.80;;
3815;SDS011;1923;48.154;11.536;2023-03-13T14:13:12;1.20;;;0.90;;
3815;SDS011;1923;48.154;11.536;2023-03-13T14:15:42;1.63;;;0.97;;
3815;SDS011;1923;48.154;11.536;2023-03-13T14:18:13;1.47;;;0.70;;
3815;SDS011;1923;48.154;11.536;2023-03-13T14:20:55;2.47;;;1.00;;
3815;SDS011;1923;48.154;11.536;2023-03-13T14:26:13;3.17;;;0.83;;
3815;SDS011;1923;48.154;11.536;2023-03-13T14:28:44;2.57;;;0.80;;
3815;SDS011;1923;48.154;11.536;2023-03-13T14:31:20;1.50;;;0.80;;
3815;SDS011;1923;48.154;11.536;2023-03-13T14:33:53;3.43;;;1.00;;
3815;SDS011;1923;48.154;11.536;2023-03-13T14:36:23;2.40;;;1.40;;
3815;SDS011;1923;48.154;11.536;2023-03-13T14:38:53;1.53;;;0.83;;
3815;SDS011;1923;48.154;11.536;2023-03-13T14:41:23;0.80;;;0.70;;
3815;SDS011;1923;48.154;11.536;2023-03-13T14:44:00;3.13;;;0.87;;
3815;SDS011;1923;48.154;11.536;2023-03-13T14:46:32;4.10;;;0.63;;
3815;SDS011;1923;48.154;11.536;2023-03-13T14:49:05;3.13;;;0.90;;
3815;SDS011;1923;48.154;11.536;2023-03-13T14:51:37;3.33;;;1.30;;
3815;SDS011;1923;48.154;11.536;2023-03-13T14:54:20;3.23;;;1.13;;
3815;SDS011;1923;48.154;11.536;2023-03-13T14:57:00;1.10;;;0.60;;
3815;SDS011;1923;48.154;11.536;2023-03-13T14:59:30;2.90;;;1.37;;
3815;SDS011;1923;48.154;11.536;2023-03-13T15:01:58;5.70;;;0.80;;
3815;SDS011;1923;48.154;11.536;2023-03-13T15:07:16;1.60;;;0.77;;
3815;SDS011;1923;48.154;11.536;2023-03-13T15:09:45;1.50;;;0.60;;
3815;SDS011;1923;48.154;11.536;2023-03-13T15:12:15;2.50;;;0.90;;
3815;SDS011;1923;48.154;11.536;2023-03-13T15:14:45;2.73;;;1.03;;
3815;SDS011;1923;48.154;11.536;2023-03-13T15:17:15;1.90;;;0.80;;
3815;SDS011;1923;48.154;11.536;2023-03-13T15:19:49;1.33;;;0.50;;
3815;SDS011;1923;48.154;11.536;2023-03-13T15:22:21;0.70;;;0.50;;
3815;SDS011;1923;48.154;11.536;2023-03-13T15:24:53;1.87;;;0.67;;
3815;SDS011;1923;48.154;11.536;2023-03-13T15:27:32;3.07;;;1.23;;
3815;SDS011;1923;48.154;11.536;2023-03-13T15:30:00;2.53;;;1.10;;
3815;SDS011;1923;48.154;11.536;2023-03-13T15:32:29;3.43;;;1.50;;
3815;SDS011;1923;48.154;11.536;2023-03-13T15:35:00;3.58;;;0.90;;
3815;SDS011;1923;48.154;11.536;2023-03-13T15:37:30;5.00;;;1.70;;
3815;SDS011;1923;48.154;11.536;2023-03-13T15:39:58;8.17;;;2.60;;
3815;SDS011;1923;48.154;11.536;2023-03-13T15:42:28;1.97;;;1.00;;
3815;SDS011;1923;48.154;11.536;2023-03-13T15:44:55;3.87;;;0.90;;
3815;SDS011;1923;48.154;11.536;2023-03-13T15:47:24;1.47;;;0.90;;
3815;SDS011;1923;48.154;11.536;2023-03-13T15:49:52;1.83;;;0.87;;
3815;SDS011;1923;48.154;11.536;2023-03-13T15:52:20;1.63;;;0.73;;
3815;SDS011;1923;48.154;11.536;2023-03-13T15:54:50;1.13;;;0.60;;
3815;SDS011;1923;48.154;11.536;2023-03-13T15:57:19;1.43;;;0.80;;
3815;SDS011;1923;48.154;11.536;2023-03-13T15:59:49;1.53;;;0.80;;
3815;SDS011;1923;48.154;11.536;2023-03-13T16:02:18;1.00;;;0.80;;
3815;SDS011;1923;48.154;11.536;2023-03-13T16:04:48;1.52;;;0.60;;
3815;SDS011;1923;48.154;11.536;2023-03-13T16:07:17;0.83;;;0.63;;
3815;SDS011;1923;48.154;11.536;2023-03-13T16:09:47;0.70;;;0.70;;
3815;SDS011;1923;48.154;11.536;2023-03-13T16:12:16;1.33;;;0.90;;
3815;SDS011;1923;48.154;11.536;2023-03-13T16:14:44;2.33;;;0.93;;
3815;SDS011;1923;48.154;11.536;2023-03-13T16:17:13;1.40;;;0.60;;
3815;SDS011;1923;48.154;11.536;2023-03-13T16:19:43;1.10;;;0.50;;
3815;SDS011;1923;48.154;11.536;2023-03-13T16:22:11;1.47;;;0.80;;
3815;SDS011;1923;48.154;11.536;2023-03-13T16:24:40;1.90;;;0.67;;
3815;SDS011;1923;48.154;11.536;2023-03-13T16:27:12;2.83;;;0.60;;
3815;SDS011;1923;48.154;11.536;2023-03-13T16:29:42;3.17;;;0.80;;
3815;SDS011;1923;48.154;11.536;2023-03-13T16:32:11;1.37;;;0.77;;
3815;SDS011;1923;48.154;11.536;2023-03-13T16:34:41;3.23;;;1.00;;
3815;SDS011;1923;48.154;11.536;2023-03-13T16:37:12;1.43;;;0.73;;
3815;SDS011;1923;48.154;11.536;2023-03-13T16:39:42;1.27;;;0.97;;
3815;SDS011;1923;48.154;11.536;2023-03-13T16:42:11;8.00;;;0.70;;
3815;SDS011;1923;48.154;11.536;2023-03-13T16:44:39;1.00;;;0.70;;
3815;SDS011;1923;48.154;11.536;2023-03-13T16:47:13;1.70;;;0.60;;
3815;SDS011;1923;48.154;11.536;2023-03-13T16:49:45;1.57;;;0.93;;
3815;SDS011;1923;48.154;11.536;2023-03-13T16:52:13;1.23;;;0.63;;
3815;SDS011;1923;48.154;11.536;2023-03-13T16:54:42;1.30;;;1.00;;
3815;SDS011;1923;48.154;11.536;2023-03-13T16:57:11;4.93;;;0.90;;
3815;SDS011;1923;48.154;11.536;2023-03-13T16:59:41;2.50;;;1.00;;
3815;SDS011;1923;48.154;11.536;2023-03-13T17:02:14;1.77;;;0.80;;
3815;SDS011;1923;48.154;11.536;2023-03-13T17:04:44;1.45;;;0.65;;
3815;SDS011;1923;48.154;11.536;2023-03-13T17:07:17;1.03;;;0.77;;
3815;SDS011;1923;48.154;11.536;2023-03-13T17:09:46;1.90;;;0.87;;
3815;SDS011;1923;48.154;11.536;2023-03-13T17:12:14;1.30;;;0.80;;
3815;SDS011;1923;48.154;11.536;2023-03-13T17:14:42;1.30;;;0.93;;
3815;SDS011;1923;48.154;11.536;2023-03-13T17:17:11;3.00;;;1.13;;
3815;SDS011;1923;48.154;11.536;2023-03-13T17:19:42;2.43;;;1.43;;
3815;SDS011;1923;48.154;11.536;2023-03-13T17:22:10;1.90;;;1.40;;
3815;SDS011;1923;48.154;11.536;2023-03-13T17:24:40;2.23;;;0.80;;
3815;SDS011;1923;48.154;11.536;2023-03-13T17:27:10;4.37;;;1.30;;
3815;SDS011;1923;48.154;11.536;2023-03-13T17:29:39;1.90;;;1.10;;
3815;SDS011;1923;48.154;11.536;2023-03-13T17:32:08;1.10;;;0.97;;
3815;SDS011;1923;48.154;11.536;2023-03-13T17:34:37;1.23;;;1.10;;
3815;SDS011;1923;48.154;11.536;2023-03-13T17:37:10;1.10;;;1.00;;
3815;SDS011;1923;48.154;11.536;2023-03-13T17:39:41;6.03;;;1.50;;
3815;SDS011;1923;48.154;11.536;2023-03-13T17:42:10;3.33;;;1.27;;
3815;SDS011;1923;48.154;11.536;2023-03-13T17:44:38;2.00;;;1.10;;
3815;SDS011;1923;48.154;11.536;2023-03-13T17:47:11;1.10;;;1.00;;
3815;SDS011;1923;48.154;11.536;2023-03-13T17:49:42;2.60;;;1.30;;
3815;SDS011;1923;48.154;11.536;2023-03-13T17:52:11;1.20;;;1.10;;
3815;SDS011;1923;48.154;11.536;2023-03-13T17:54:40;2.03;;;1.00;;
3815;SDS011;1923;48.154;11.536;2023-03-13T17:57:10;1.20;;;1.00;;
3815;SDS011;1923;48.154;11.536;2023-03-13T17:59:41;1.93;;;1.30;;
3815;SDS011;1923;48.154;11.536;2023-03-13T18:02:10;1.23;;;1.13;;
3815;SDS011;1923;48.154;11.536;2023-03-13T18:04:40;3.43;;;1.23;;
3815;SDS011;1923;48.154;11.536;2023-03-13T18:07:15;3.30;;;1.30;;
3815;SDS011;1923;48.154;11.536;2023-03-13T18:09:46;1.73;;;1.13;;
3815;SDS011;1923;48.154;11.536;2023-03-13T18:12:14;2.23;;;1.40;;
3815;SDS011;1923;48.154;11.536;2023-03-13T18:14:43;5.33;;;1.47;;
3815;SDS011;1923;48.154;11.536;2023-03-13T18:17:12;1.90;;;1.20;;
3815;SDS011;1923;48.154;11.536;2023-03-13T18:19:43;1.50;;;1.20;;
3815;SDS011;1923;48.154;11.536;2023-03-13T18:22:12;1.47;;;1.13;;
3815;SDS011;1923;48.154;11.536;2023-03-13T18:24:42;2.07;;;1.17;;
3815;SDS011;1923;48.154;11.536;2023-03-13T18:27:11;3.97;;;1.43;;
3815;SDS011;1923;48.154;11.536;2023-03-13T18:29:40;2.17;;;1.00;;
3815;SDS011;1923;48.154;11.536;2023-03-13T18:32:11;1.60;;;1.13;;
3815;SDS011;1923;48.154;11.536;2023-03-13T18:34:41;1.70;;;1.40;;
3815;SDS011;1923;48.154;11.536;2023-03-13T18:37:15;3.43;;;1.27;;
3815;SDS011;1923;48.154;11.536;2023-03-13T18:39:46;1.77;;;0.70;;
3815;SDS011;1923;48.154;11.536;2023-03-13T18:42:16;2.30;;;1.10;;
3815;SDS011;1923;48.154;11.536;2023-03-13T18:44:44;2.00;;;1.07;;
3815;SDS011;1923;48.154;11.536;2023-03-13T18:47:14;1.73;;;1.20;;
3815;SDS011;1923;48.154;11.536;2023-03-13T18:49:43;1.90;;;1.20;;
3815;SDS011;1923;48.154;11.536;2023-03-13T18:52:13;1.83;;;1.20;;
3815;SDS011;1923;48.154;11.536;2023-03-13T18:54:42;2.57;;;1.50;;
3815;SDS011;1923;48.154;11.536;2023-03-13T18:57:11;1.40;;;1.30;;
3815;SDS011;1923;48.154;11.536;2023-03-13T18:59:41;3.20;;;1.33;;
3815;SDS011;1923;48.154;11.536;2023-03-13T19:02:11;2.30;;;1.50;;
3815;SDS011;1923;48.154;11.536;2023-03-13T19:04:40;2.57;;;1.57;;
3815;SDS011;1923;48.154;11.536;2023-03-13T19:07:10;4.03;;;1.43;;
3815;SDS011;1923;48.154;11.536;2023-03-13T19:09:41;2.27;;;1.50;;
3815;SDS011;1923;48.154;11.536;2023-03-13T19:12:12;1.67;;;1.07;;
3815;SDS011;1923;48.154;11.536;2023-03-13T19:14:42;2.80;;;1.63;;
3815;SDS011;1923;48.154;11.536;2023-03-13T19:17:15;2.60;;;1.20;;
3815;SDS011;1923;48.154;11.536;2023-03-13T19:19:49;1.90;;;1.47;;
3815;SDS011;1923;48.154;11.536;2023-03-13T19:22:22;2.13;;;1.30;;
3815;SDS011;1923;48.154;11.536;2023-03-13T19:24:52;4.10;;;2.10;;
3815;SDS011;1923;48.154;11.536;2023-03-13T19:27:21;2.67;;;1.40;;
3815;SDS011;1923;48.154;11.536;2023-03-13T19:29:49;2.87;;;1.30;;
3815;SDS011;1923;48.154;11.536;2023-03-13T19:32:17;2.03;;;1.20;;
3815;SDS011;1923;48.154;11.536;2023-03-13T19:34:45;2.73;;;2.00;;
3815;SDS011;1923;48.154;11.536;2023-03-13T19:37:14;3.10;;;2.00;;
3815;SDS011;1923;48.154;11.536;2023-03-13T19:39:44;3.07;;;1.67;;
3815;SDS011;1923;48.154;11.536;2023-03-13T19:42:13;2.27;;;1.27;;
3815;SDS011;1923;48.154;11.536;2023-03-13T19:44:41;2.50;;;1.77;;
3815;SDS011;1923;48.154;11.536;2023-03-13T19:47:10;2.87;;;1.87;;
3815;SDS011;1923;48.154;11.536;2023-03-13T19:49:40;2.00;;;1.57;;
3815;SDS011;1923;48.154;11.536;2023-03-13T19:52:10;2.23;;;1.40;;
3815;SDS011;1923;48.154;11.536;2023-03-13T19:54:38;4.20;;;1.60;;
3815;SDS011;1923;48.154;11.536;2023-03-13T19:57:07;3.00;;;1.40;;
3815;SDS011;1923;48.154;11.536;2023-03-13T19:59:38;2.77;;;2.27;;
3815;SDS011;1923;48.154;11.536;2023-03-13T20:02:07;2.70;;;1.47;;
3815;SDS011;1923;48.154;11.536;2023-03-13T20:04:36;3.13;;;1.80;;
3815;SDS011;1923;48.154;11.536;2023-03-13T20:07:04;5.17;;;1.80;;
3815;SDS011;1923;48.154;11.536;2023-03-13T20:09:33;2.50;;;1.87;;
3815;SDS011;1923;48.154;11.536;2023-03-13T20:12:02;2.50;;;1.67;;
3815;SDS011;1923;48.154;11.536;2023-03-13T20:14:30;2.73;;;1.50;;
3815;SDS011;1923;48.154;11.536;2023-03-13T20:17:00;3.63;;;1.80;;
3815;SDS011;1923;48.154;11.536;2023-03-13T20:19:30;3.10;;;1.60;;
3815;SDS011;1923;48.154;11.536;2023-03-13T20:21:58;2.13;;;1.47;;
3815;SDS011;1923;48.154;11.536;2023-03-13T20:24:29;3.30;;;1.60;;
3815;SDS011;1923;48.154;11.536;2023-03-13T20:26:58;3.40;;;2.10;;
3815;SDS011;1923;48.154;11.536;2023-03-13T20:29:27;2.47;;;1.67;;
3815;SDS011;1923;48.154;11.536;2023-03-13T20:31:55;2.23;;;1.60;;
3815;SDS011;1923;48.154;11.536;2023-03-13T20:34:26;3.90;;;1.90;;
3815;SDS011;1923;48.154;11.536;2023-03-13T20:36:54;1.93;;;1.70;;
3815;SDS011;1923;48.154;11.536;2023-03-13T20:39:25;2.10;;;1.77;;
3815;SDS011;1923;48.154;11.536;2023-03-13T20:41:53;3.60;;;2.07;;
3815;SDS011;1923;48.154;11.536;2023-03-13T20:44:21;3.20;;;1.73;;
3815;SDS011;1923;48.154;11.536;2023-03-13T20:46:49;2.47;;;1.47;;
3815;SDS011;1923;48.154;11.536;2023-03-13T20:49:17;2.00;;;1.47;;
3815;SDS011;1923;48.154;11.536;2023-03-13T20:51:47;2.70;;;2.20;;
3815;SDS011;1923;48.154;11.536;2023-03-13T20:54:15;2.17;;;1.70;;
3815;SDS011;1923;48.154;11.536;2023-03-13T20:56:43;2.10;;;1.90;;
3815;SDS011;1923;48.154;11.536;2023-03-13T20:59:11;3.00;;;1.87;;
3815;SDS011;1923;48.154;11.536;2023-03-13T21:01:39;3.90;;;1.83;;
3815;SDS011;1923;48.154;11.536;2023-03-13T21:04:09;1.93;;;1.50;;
3815;SDS011;1923;48.154;11.536;2023-03-13T21:06:37;2.87;;;1.73;;
3815;SDS011;1923;48.154;11.536;2023-03-13T21:09:06;5.60;;;1.90;;
3815;SDS011;1923;48.154;11.536;2023-03-13T21:11:35;2.93;;;1.90;;
3815;SDS011;1923;48.154;11.536;2023-03-13T21:14:03;2.77;;;1.80;;
3815;SDS011;1923;48.154;11.536;2023-03-13T21:16:31;3.10;;;1.83;;
3815;SDS011;1923;48.154;11.536;2023-03-13T21:18:59;3.83;;;1.80;;
3815;SDS011;1923;48.154;11.536;2023-03-13T21:21:27;2.23;;;1.60;;
3815;SDS011;1923;48.154;11.536;2023-03-13T21:23:55;3.40;;;1.87;;
3815;SDS011;1923;48.154;11.536;2023-03-13T21:26:25;2.73;;;1.80;;
3815;SDS011;1923;48.154;11.536;2023-03-13T21:28:53;3.00;;;1.90;;
3815;SDS011;1923;48.154;11.536;2023-03-13T21:31:21;3.17;;;2.03;;
3815;SDS011;1923;48.154;11.536;2023-03-13T21:33:49;2.50;;;1.70;;
3815;SDS011;1923;48.154;11.536;2023-03-13T21:36:18;3.30;;;2.30;;
3815;SDS011;1923;48.154;11.536;2023-03-13T21:38:47;3.23;;;1.70;;
3815;SDS011;1923;48.154;11.536;2023-03-13T21:41:17;3.77;;;2.03;;
3815;SDS011;1923;48.154;11.536;2023-03-13T21:43:47;4.10;;;2.10;;
3815;SDS011;1923;48.154;11.536;2023-03-13T21:46:16;2.40;;;1.50;;
3815;SDS011;1923;48.154;11.536;2023-03-13T21:48:45;1.53;;;1.40;;
3815;SDS011;1923;48.154;11.536;2023-03-13T21:51:13;2.80;;;1.70;;
3815;SDS011;1923;48.154;11.536;2023-03-13T21:53:41;1.70;;;1.50;;
3815;SDS011;1923;48.154;11.536;2023-03-13T21:56:10;4.47;;;1.83;;
3815;SDS011;1923;48.154;11.536;2023-03-13T21:58:41;3.17;;;1.57;;
3815;SDS011;1923;48.154;11.536;2023-03-13T22:01:12;2.27;;;1.77;;
3815;SDS011;1923;48.154;11.536;2023-03-13T22:03:41;2.83;;;1.90;;
3815;SDS011;1923;48.154;11.536;2023-03-13T22:06:12;2.43;;;1.80;;
3815;SDS011;1923;48.154;11.536;2023-03-13T22:08:41;3.33;;;2.07;;
3815;SDS011;1923;48.154;11.536;2023-03-13T22:11:09;2.17;;;1.50;;
3815;SDS011;1923;48.154;11.536;2023-03-13T22:13:38;3.57;;;1.80;;
3815;SDS011;1923;48.154;11.536;2023-03-13T22:16:07;2.27;;;1.90;;
3815;SDS011;1923;48.154;11.536;2023-03-13T22:18:38;4.40;;;1.80;;
3815;SDS011;1923;48.154;11.536;2023-03-13T22:21:07;1.57;;;1.30;;
3815;SDS011;1923;48.154;11.536;2023-03-13T22:23:35;3.17;;;1.73;;
3815;SDS011;1923;48.154;11.536;2023-03-13T22:26:04;2.20;;;1.37;;
3815;SDS011;1923;48.154;11.536;2023-03-13T22:28:32;3.10;;;1.70;;
3815;SDS011;1923;48.154;11.536;2023-03-13T22:31:00;3.17;;;2.00;;
3815;SDS011;1923;48.154;11.536;2023-03-13T22:33:29;3.63;;;1.67;;
3815;SDS011;1923;48.154;11.536;2023-03-13T22:35:58;2.40;;;1.20;;
3815;SDS011;1923;48.154;11.536;2023-03-13T22:38:27;2.10;;;1.43;;
3815;SDS011;1923;48.154;11.536;2023-03-13T22:40:55;2.37;;;1.50;;
3815;SDS011;1923;48.154;11.536;2023-03-13T22:43:24;2.40;;;1.53;;
3815;SDS011;1923;48.154;11.536;2023-03-13T22:45:53;1.17;;;1.00;;
3815;SDS011;1923;48.154;11.536;2023-03-13T22:48:21;1.53;;;1.13;;
3815;SDS011;1923;48.154;11.536;2023-03-13T22:50:56;2.03;;;1.30;;
3815;SDS011;1923;48.154;11.536;2023-03-13T22:53:27;1.83;;;1.40;;
3815;SDS011;1923;48.154;11.536;2023-03-13T22:55:55;1.50;;;1.17;;
3815;SDS011;1923;48.154;11.536;2023-03-13T22:58:23;2.30;;;1.40;;
3815;SDS011;1923;48.154;11.536;2023-03-13T23:00:52;1.07;;;0.90;;
3815;SDS011;1923;48.154;11.536;2023-03-13T23:03:20;1.50;;;1.00;;
3815;SDS011;1923;48.154;11.536;2023-03-13T23:05:49;1.53;;;1.00;;
3815;SDS011;1923;48.154;11.536;2023-03-13T23:08:19;0.90;;;0.80;;
3815;SDS011;1923;48.154;11.536;2023-03-13T23:10:48;1.90;;;0.70;;
3815;SDS011;1923;48.154;11.536;2023-03-13T23:13:16;0.90;;;0.60;;
3815;SDS011;1923;48.154;11.536;2023-03-13T23:15:44;0.90;;;0.80;;
3815;SDS011;1923;48.154;11.536;2023-03-13T23:18:21;1.43;;;0.90;;
3815;SDS011;1923;48.154;11.536;2023-03-13T23:20:50;0.70;;;0.60;;
3815;SDS011;1923;48.154;11.536;2023-03-13T23:23:19;2.03;;;0.97;;
3815;SDS011;1923;48.154;11.536;2023-03-13T23:25:48;1.00;;;0.70;;
3815;SDS011;1923;48.154;11.536;2023-03-13T23:28:16;2.10;;;0.80;;
3815;SDS011;1923;48.154;11.536;2023-03-13T23:30:44;1.40;;;0.80;;
3815;SDS011;1923;48.154;11.536;2023-03-13T23:33:12;2.30;;;1.10;;
3815;SDS011;1923;48.154;11.536;2023-03-13T23:35:40;1.93;;;0.90;;
3815;SDS011;1923;48.154;11.536;2023-03-13T23:38:09;1.43;;;1.17;;
3815;SDS011;1923;48.154;11.536;2023-03-13T23:40:38;1.00;;;0.70;;
3815;SDS011;1923;48.154;11.536;2023-03-13T23:43:07;1.33;;;0.90;;
3815;SDS011;1923;48.154;11.536;2023-03-13T23:45:35;1.30;;;0.80;;
3815;SDS011;1923;48.154;11.536;2023-03-13T23:48:03;3.50;;;0.90;;
3815;SDS011;1923;48.154;11.536;2023-03-13T23:50:31;1.67;;;0.93;;
3815;SDS011;1923;48.154;11.536;2023-03-13T23:52:59;1.13;;;0.70;;
3815;SDS011;1923;48.154;11.536;2023-03-13T23:55:27;2.10;;;0.90;;
3815;SDS011;1923;48.154;11.536;2023-03-13T23:57:56;1.33;;;0.80;;
